sensor_id;sensor_type;location;lat;lon;timestamp;P1;durP1;ratioP1;P2;durP2;ratioP2
54849;SDS011;47660;51.334;12.396;2022-10-17T00:01:45;3.92;;;1.48;;
54849;SDS011;47660;51.334;12.396;2022-10-17T00:04:10;3.40;;;1.48;;
54849;SDS011;47660;51.334;12.396;2022-10-17T00:06:36;2.58;;;1.70;;
54849;SDS011;47660;51.334;12.396;2022-10-17T00:09:01;2.50;;;1.50;;
54849;SDS011;47660;51.334;12.396;2022-10-17T00:11:26;2.25;;;1.52;;
54849;SDS011;47660;51.334;12.396;2022-10-17T00:13:52;2.45;;;1.70;;
54849;SDS011;47660;51.334;12.396;2022-10-17T00:16:28;3.58;;;1.75;;
54849;SDS011;47660;51.334;12.396;2022-10-17T00:18:54;2.85;;;1.48;;
54849;SDS011;47660;51.334;12.396;2022-10-17T00:21:20;2.20;;;1.50;;
54849;SDS011;47660;51.334;12.396;2022-10-17T00:23:45;2.40;;;1.73;;
54849;SDS011;47660;51.334;12.396;2022-10-17T00:26:11;2.65;;;1.95;;
54849;SDS011;47660;51.334;12.396;2022-10-17T00:28:36;2.30;;;1.40;;
54849;SDS011;47660;51.334;12.396;2022-10-17T00:31:03;1.88;;;1.50;;
54849;SDS011;47660;51.334;12.396;2022-10-17T00:33:29;1.77;;;1.50;;
54849;SDS011;47660;51.334;12.396;2022-10-17T00:36:28;2.05;;;1.52;;
54849;SDS011;47660;51.334;12.396;2022-10-17T00:38:47;4.45;;;1.80;;
54849;SDS011;47660;51.334;12.396;2022-10-17T00:41:13;1.83;;;1.55;;
54849;SDS011;47660;51.334;12.396;2022-10-17T00:46:13;2.75;;;1.92;;
54849;SDS011;47660;51.334;12.396;2022-10-17T00:48:38;3.90;;;1.42;;
54849;SDS011;47660;51.334;12.396;2022-10-17T00:51:03;2.47;;;1.77;;
54849;SDS011;47660;51.334;12.396;2022-10-17T00:53:31;2.03;;;1.38;;
54849;SDS011;47660;51.334;12.396;2022-10-17T00:55:57;3.05;;;1.80;;
54849;SDS011;47660;51.334;12.396;2022-10-17T00:58:22;5.03;;;1.40;;
54849;SDS011;47660;51.334;12.396;2022-10-17T01:00:48;3.17;;;1.80;;
54849;SDS011;47660;51.334;12.396;2022-10-17T01:03:15;2.03;;;1.52;;
54849;SDS011;47660;51.334;12.396;2022-10-17T01:05:41;2.28;;;1.35;;
54849;SDS011;47660;51.334;12.396;2022-10-17T01:08:06;1.98;;;1.42;;
54849;SDS011;47660;51.334;12.396;2022-10-17T01:10:42;3.78;;;1.90;;
54849;SDS011;47660;51.334;12.396;2022-10-17T01:13:10;2.58;;;1.65;;
54849;SDS011;47660;51.334;12.396;2022-10-17T01:15:49;1.88;;;1.23;;
54849;SDS011;47660;51.334;12.396;2022-10-17T01:31:18;3.05;;;1.67;;
54849;SDS011;47660;51.334;12.396;2022-10-17T01:36:14;3.58;;;1.80;;
54849;SDS011;47660;51.334;12.396;2022-10-17T01:38:46;5.80;;;1.70;;
54849;SDS011;47660;51.334;12.396;2022-10-17T01:41:26;1.80;;;1.30;;
54849;SDS011;47660;51.334;12.396;2022-10-17T01:43:53;3.25;;;1.85;;
54849;SDS011;47660;51.334;12.396;2022-10-17T01:46:36;2.42;;;1.55;;
54849;SDS011;47660;51.334;12.396;2022-10-17T01:49:03;4.10;;;1.92;;
54849;SDS011;47660;51.334;12.396;2022-10-17T01:51:40;2.30;;;1.50;;
54849;SDS011;47660;51.334;12.396;2022-10-17T01:56:34;2.58;;;1.83;;
54849;SDS011;47660;51.334;12.396;2022-10-17T01:59:09;1.80;;;1.35;;
54849;SDS011;47660;51.334;12.396;2022-10-17T02:01:36;2.08;;;1.25;;
54849;SDS011;47660;51.334;12.396;2022-10-17T02:04:04;2.00;;;1.50;;
54849;SDS011;47660;51.334;12.396;2022-10-17T02:06:34;2.28;;;1.35;;
54849;SDS011;47660;51.334;12.396;2022-10-17T02:09:13;3.13;;;1.27;;
54849;SDS011;47660;51.334;12.396;2022-10-17T02:11:42;2.88;;;1.48;;
54849;SDS011;47660;51.334;12.396;2022-10-17T02:14:17;1.70;;;1.40;;
54849;SDS011;47660;51.334;12.396;2022-10-17T02:17:05;1.67;;;1.38;;
54849;SDS011;47660;51.334;12.396;2022-10-17T02:26:59;1.42;;;1.20;;
54849;SDS011;47660;51.334;12.396;2022-10-17T02:29:29;2.00;;;1.58;;
54849;SDS011;47660;51.334;12.396;2022-10-17T02:32:02;1.40;;;1.23;;
54849;SDS011;47660;51.334;12.396;2022-10-17T02:36:58;1.23;;;1.10;;
54849;SDS011;47660;51.334;12.396;2022-10-17T02:39:27;1.70;;;1.25;;
54849;SDS011;47660;51.334;12.396;2022-10-17T02:41:53;1.80;;;1.40;;
54849;SDS011;47660;51.334;12.396;2022-10-17T02:44:19;1.73;;;1.30;;
54849;SDS011;47660;51.334;12.396;2022-10-17T02:46:46;2.60;;;1.48;;
54849;SDS011;47660;51.334;12.396;2022-10-17T02:49:20;3.40;;;1.55;;
54849;SDS011;47660;51.334;12.396;2022-10-17T02:51:54;1.38;;;1.10;;
54849;SDS011;47660;51.334;12.396;2022-10-17T02:56:49;1.75;;;1.52;;
54849;SDS011;47660;51.334;12.396;2022-10-17T02:59:16;1.95;;;1.35;;
54849;SDS011;47660;51.334;12.396;2022-10-17T03:01:42;1.80;;;1.27;;
54849;SDS011;47660;51.334;12.396;2022-10-17T03:04:09;2.65;;;1.48;;
54849;SDS011;47660;51.334;12.396;2022-10-17T03:06:34;1.60;;;1.33;;
54849;SDS011;47660;51.334;12.396;2022-10-17T03:09:00;4.20;;;1.33;;
54849;SDS011;47660;51.334;12.396;2022-10-17T03:11:27;2.13;;;1.38;;
54849;SDS011;47660;51.334;12.396;2022-10-17T03:13:52;2.33;;;1.25;;
54849;SDS011;47660;51.334;12.396;2022-10-17T03:16:18;4.07;;;1.30;;
54849;SDS011;47660;51.334;12.396;2022-10-17T03:18:43;3.58;;;1.40;;
54849;SDS011;47660;51.334;12.396;2022-10-17T03:21:08;1.35;;;0.98;;
54849;SDS011;47660;51.334;12.396;2022-10-17T03:23:33;2.27;;;1.30;;
54849;SDS011;47660;51.334;12.396;2022-10-17T03:26:02;1.53;;;1.33;;
54849;SDS011;47660;51.334;12.396;2022-10-17T03:28:27;1.83;;;1.23;;
54849;SDS011;47660;51.334;12.396;2022-10-17T03:30:52;1.98;;;1.30;;
54849;SDS011;47660;51.334;12.396;2022-10-17T03:33:17;1.67;;;1.23;;
54849;SDS011;47660;51.334;12.396;2022-10-17T03:35:42;2.63;;;1.45;;
54849;SDS011;47660;51.334;12.396;2022-10-17T03:38:10;2.87;;;1.40;;
54849;SDS011;47660;51.334;12.396;2022-10-17T03:40:35;1.75;;;1.20;;
54849;SDS011;47660;51.334;12.396;2022-10-17T03:43:03;1.92;;;1.20;;
54849;SDS011;47660;51.334;12.396;2022-10-17T03:45:28;1.67;;;1.20;;
54849;SDS011;47660;51.334;12.396;2022-10-17T03:47:53;1.10;;;1.00;;
54849;SDS011;47660;51.334;12.396;2022-10-17T03:50:19;3.20;;;1.40;;
54849;SDS011;47660;51.334;12.396;2022-10-17T03:52:47;1.60;;;1.50;;
54849;SDS011;47660;51.334;12.396;2022-10-17T03:55:13;2.25;;;1.25;;
54849;SDS011;47660;51.334;12.396;2022-10-17T03:57:40;1.67;;;1.42;;
54849;SDS011;47660;51.334;12.396;2022-10-17T04:00:06;1.92;;;1.48;;
54849;SDS011;47660;51.334;12.396;2022-10-17T04:02:31;1.30;;;1.20;;
54849;SDS011;47660;51.334;12.396;2022-10-17T04:04:56;2.13;;;1.40;;
54849;SDS011;47660;51.334;12.396;2022-10-17T04:07:22;2.30;;;1.55;;
54849;SDS011;47660;51.334;12.396;2022-10-17T04:09:47;3.42;;;1.08;;
54849;SDS011;47660;51.334;12.396;2022-10-17T04:12:12;2.03;;;1.40;;
54849;SDS011;47660;51.334;12.396;2022-10-17T04:14:40;2.03;;;1.25;;
54849;SDS011;47660;51.334;12.396;2022-10-17T04:17:05;2.35;;;1.20;;
54849;SDS011;47660;51.334;12.396;2022-10-17T04:19:30;1.38;;;1.08;;
54849;SDS011;47660;51.334;12.396;2022-10-17T04:21:55;1.77;;;1.40;;
54849;SDS011;47660;51.334;12.396;2022-10-17T04:24:21;2.03;;;1.57;;
54849;SDS011;47660;51.334;12.396;2022-10-17T04:26:48;1.58;;;1.20;;
54849;SDS011;47660;51.334;12.396;2022-10-17T04:29:14;2.72;;;1.77;;
54849;SDS011;47660;51.334;12.396;2022-10-17T04:31:41;1.90;;;1.38;;
54849;SDS011;47660;51.334;12.396;2022-10-17T04:34:07;1.80;;;1.48;;
54849;SDS011;47660;51.334;12.396;2022-10-17T04:36:32;2.40;;;1.40;;
54849;SDS011;47660;51.334;12.396;2022-10-17T04:38:59;3.40;;;1.55;;
54849;SDS011;47660;51.334;12.396;2022-10-17T04:41:27;2.92;;;1.25;;
54849;SDS011;47660;51.334;12.396;2022-10-17T04:43:52;1.40;;;1.27;;
54849;SDS011;47660;51.334;12.396;2022-10-17T04:46:17;1.60;;;1.30;;
54849;SDS011;47660;51.334;12.396;2022-10-17T04:48:43;1.93;;;1.40;;
54849;SDS011;47660;51.334;12.396;2022-10-17T04:51:12;2.22;;;1.42;;
54849;SDS011;47660;51.334;12.396;2022-10-17T04:53:38;2.80;;;1.20;;
54849;SDS011;47660;51.334;12.396;2022-10-17T04:56:22;3.03;;;1.40;;
54849;SDS011;47660;51.334;12.396;2022-10-17T04:58:47;2.55;;;1.38;;
54849;SDS011;47660;51.334;12.396;2022-10-17T05:01:16;5.85;;;1.73;;
54849;SDS011;47660;51.334;12.396;2022-10-17T05:03:42;1.77;;;1.48;;
54849;SDS011;47660;51.334;12.396;2022-10-17T05:06:09;1.45;;;1.10;;
54849;SDS011;47660;51.334;12.396;2022-10-17T05:08:34;1.67;;;1.58;;
54849;SDS011;47660;51.334;12.396;2022-10-17T05:11:00;1.67;;;1.33;;
54849;SDS011;47660;51.334;12.396;2022-10-17T05:13:28;4.07;;;1.33;;
54849;SDS011;47660;51.334;12.396;2022-10-17T05:15:56;2.08;;;1.38;;
54849;SDS011;47660;51.334;12.396;2022-10-17T05:18:21;2.45;;;1.67;;
54849;SDS011;47660;51.334;12.396;2022-10-17T05:20:47;2.75;;;1.20;;
54849;SDS011;47660;51.334;12.396;2022-10-17T05:23:14;2.40;;;1.27;;
54849;SDS011;47660;51.334;12.396;2022-10-17T05:25:39;1.50;;;1.40;;
54849;SDS011;47660;51.334;12.396;2022-10-17T05:28:05;1.33;;;1.13;;
54849;SDS011;47660;51.334;12.396;2022-10-17T05:30:30;1.37;;;1.27;;
54849;SDS011;47660;51.334;12.396;2022-10-17T05:32:55;1.80;;;1.20;;
54849;SDS011;47660;51.334;12.396;2022-10-17T05:35:20;2.83;;;1.30;;
54849;SDS011;47660;51.334;12.396;2022-10-17T05:37:46;2.42;;;1.35;;
54849;SDS011;47660;51.334;12.396;2022-10-17T05:40:11;1.77;;;1.10;;
54849;SDS011;47660;51.334;12.396;2022-10-17T05:42:37;1.80;;;1.10;;
54849;SDS011;47660;51.334;12.396;2022-10-17T05:45:02;2.17;;;1.42;;
54849;SDS011;47660;51.334;12.396;2022-10-17T05:47:30;1.88;;;1.50;;
54849;SDS011;47660;51.334;12.396;2022-10-17T05:49:58;1.58;;;1.23;;
54849;SDS011;47660;51.334;12.396;2022-10-17T05:52:23;1.55;;;1.05;;
54849;SDS011;47660;51.334;12.396;2022-10-17T05:54:48;1.90;;;1.38;;
54849;SDS011;47660;51.334;12.396;2022-10-17T05:57:14;1.95;;;1.20;;
54849;SDS011;47660;51.334;12.396;2022-10-17T05:59:39;1.73;;;1.30;;
54849;SDS011;47660;51.334;12.396;2022-10-17T06:02:04;2.80;;;1.30;;
54849;SDS011;47660;51.334;12.396;2022-10-17T06:04:29;1.77;;;1.23;;
54849;SDS011;47660;51.334;12.396;2022-10-17T06:06:55;3.92;;;1.58;;
54849;SDS011;47660;51.334;12.396;2022-10-17T06:09:20;1.60;;;1.30;;
54849;SDS011;47660;51.334;12.396;2022-10-17T06:11:46;2.88;;;1.42;;
54849;SDS011;47660;51.334;12.396;2022-10-17T06:14:11;3.40;;;1.30;;
54849;SDS011;47660;51.334;12.396;2022-10-17T06:16:36;1.80;;;1.23;;
54849;SDS011;47660;51.334;12.396;2022-10-17T06:19:01;1.40;;;1.20;;
54849;SDS011;47660;51.334;12.396;2022-10-17T06:21:27;1.38;;;1.10;;
54849;SDS011;47660;51.334;12.396;2022-10-17T06:23:52;1.55;;;1.35;;
54849;SDS011;47660;51.334;12.396;2022-10-17T06:26:18;3.10;;;1.20;;
54849;SDS011;47660;51.334;12.396;2022-10-17T06:28:43;2.67;;;1.65;;
54849;SDS011;47660;51.334;12.396;2022-10-17T06:31:10;1.10;;;1.00;;
54849;SDS011;47660;51.334;12.396;2022-10-17T06:33:38;2.28;;;1.23;;
54849;SDS011;47660;51.334;12.396;2022-10-17T06:36:04;1.75;;;1.13;;
54849;SDS011;47660;51.334;12.396;2022-10-17T06:38:35;3.50;;;1.48;;
54849;SDS011;47660;51.334;12.396;2022-10-17T06:41:07;2.80;;;1.13;;
54849;SDS011;47660;51.334;12.396;2022-10-17T06:43:37;2.47;;;1.27;;
54849;SDS011;47660;51.334;12.396;2022-10-17T06:46:07;1.58;;;1.15;;
54849;SDS011;47660;51.334;12.396;2022-10-17T06:48:35;1.75;;;1.20;;
54849;SDS011;47660;51.334;12.396;2022-10-17T06:51:03;2.20;;;1.17;;
54849;SDS011;47660;51.334;12.396;2022-10-17T06:53:32;2.58;;;1.40;;
54849;SDS011;47660;51.334;12.396;2022-10-17T06:55:57;2.60;;;1.20;;
54849;SDS011;47660;51.334;12.396;2022-10-17T06:58:27;2.08;;;1.13;;
54849;SDS011;47660;51.334;12.396;2022-10-17T07:00:57;1.98;;;1.15;;
54849;SDS011;47660;51.334;12.396;2022-10-17T07:03:22;2.17;;;1.00;;
54849;SDS011;47660;51.334;12.396;2022-10-17T07:05:53;1.93;;;1.33;;
54849;SDS011;47660;51.334;12.396;2022-10-17T07:08:18;2.53;;;1.10;;
54849;SDS011;47660;51.334;12.396;2022-10-17T07:10:44;2.15;;;1.02;;
54849;SDS011;47660;51.334;12.396;2022-10-17T07:13:09;1.30;;;0.95;;
54849;SDS011;47660;51.334;12.396;2022-10-17T07:15:35;2.15;;;0.90;;
54849;SDS011;47660;51.334;12.396;2022-10-17T07:18:03;1.55;;;1.05;;
54849;SDS011;47660;51.334;12.396;2022-10-17T07:20:28;1.60;;;1.20;;
54849;SDS011;47660;51.334;12.396;2022-10-17T07:22:54;2.65;;;1.25;;
54849;SDS011;47660;51.334;12.396;2022-10-17T07:25:19;6.03;;;1.27;;
54849;SDS011;47660;51.334;12.396;2022-10-17T07:27:47;2.85;;;1.10;;
54849;SDS011;47660;51.334;12.396;2022-10-17T07:30:15;1.23;;;0.90;;
54849;SDS011;47660;51.334;12.396;2022-10-17T07:32:41;2.83;;;1.23;;
54849;SDS011;47660;51.334;12.396;2022-10-17T07:35:06;1.80;;;1.08;;
54849;SDS011;47660;51.334;12.396;2022-10-17T07:37:31;4.07;;;1.17;;
54849;SDS011;47660;51.334;12.396;2022-10-17T07:39:57;2.97;;;1.20;;
54849;SDS011;47660;51.334;12.396;2022-10-17T07:42:22;4.10;;;1.30;;
54849;SDS011;47660;51.334;12.396;2022-10-17T07:44:47;1.52;;;1.10;;
54849;SDS011;47660;51.334;12.396;2022-10-17T07:47:15;2.55;;;1.10;;
54849;SDS011;47660;51.334;12.396;2022-10-17T07:49:40;1.88;;;1.45;;
54849;SDS011;47660;51.334;12.396;2022-10-17T07:52:14;4.13;;;1.42;;
54849;SDS011;47660;51.334;12.396;2022-10-17T07:54:40;1.23;;;1.02;;
54849;SDS011;47660;51.334;12.396;2022-10-17T07:57:08;2.38;;;1.67;;
54849;SDS011;47660;51.334;12.396;2022-10-17T07:59:33;1.83;;;1.30;;
54849;SDS011;47660;51.334;12.396;2022-10-17T08:01:59;1.75;;;1.05;;
54849;SDS011;47660;51.334;12.396;2022-10-17T08:04:27;1.30;;;1.13;;
54849;SDS011;47660;51.334;12.396;2022-10-17T08:06:52;1.33;;;0.88;;
54849;SDS011;47660;51.334;12.396;2022-10-17T08:09:17;4.32;;;1.30;;
54849;SDS011;47660;51.334;12.396;2022-10-17T08:11:43;1.70;;;0.93;;
54849;SDS011;47660;51.334;12.396;2022-10-17T08:14:12;1.10;;;1.00;;
54849;SDS011;47660;51.334;12.396;2022-10-17T08:16:38;4.07;;;1.35;;
54849;SDS011;47660;51.334;12.396;2022-10-17T08:19:03;1.98;;;1.20;;
54849;SDS011;47660;51.334;12.396;2022-10-17T08:21:28;4.18;;;1.13;;
54849;SDS011;47660;51.334;12.396;2022-10-17T08:23:54;3.97;;;1.13;;
54849;SDS011;47660;51.334;12.396;2022-10-17T08:26:19;2.33;;;1.13;;
54849;SDS011;47660;51.334;12.396;2022-10-17T08:28:47;3.30;;;1.30;;
54849;SDS011;47660;51.334;12.396;2022-10-17T08:31:16;1.70;;;1.20;;
54849;SDS011;47660;51.334;12.396;2022-10-17T08:33:44;1.25;;;1.13;;
54849;SDS011;47660;51.334;12.396;2022-10-17T08:36:11;3.95;;;1.23;;
54849;SDS011;47660;51.334;12.396;2022-10-17T08:38:39;1.27;;;1.00;;
54849;SDS011;47660;51.334;12.396;2022-10-17T08:46:15;0.98;;;0.85;;
54849;SDS011;47660;51.334;12.396;2022-10-17T08:48:44;4.00;;;1.10;;
54849;SDS011;47660;51.334;12.396;2022-10-17T08:56:19;2.53;;;0.95;;
54849;SDS011;47660;51.334;12.396;2022-10-17T08:58:44;1.95;;;0.80;;
54849;SDS011;47660;51.334;12.396;2022-10-17T09:01:28;0.90;;;0.82;;
54849;SDS011;47660;51.334;12.396;2022-10-17T09:06:28;1.42;;;0.93;;
54849;SDS011;47660;51.334;12.396;2022-10-17T09:16:26;2.08;;;1.00;;
54849;SDS011;47660;51.334;12.396;2022-10-17T09:21:39;4.00;;;1.05;;
54849;SDS011;47660;51.334;12.396;2022-10-17T09:24:10;1.83;;;1.00;;
54849;SDS011;47660;51.334;12.396;2022-10-17T09:26:37;1.10;;;0.80;;
54849;SDS011;47660;51.334;12.396;2022-10-17T09:29:07;1.70;;;0.90;;
54849;SDS011;47660;51.334;12.396;2022-10-17T09:31:39;1.13;;;0.80;;
54849;SDS011;47660;51.334;12.396;2022-10-17T09:34:07;1.52;;;1.10;;
54849;SDS011;47660;51.334;12.396;2022-10-17T09:36:34;1.13;;;0.70;;
54849;SDS011;47660;51.334;12.396;2022-10-17T09:39:01;1.48;;;0.82;;
54849;SDS011;47660;51.334;12.396;2022-10-17T09:41:38;0.95;;;0.90;;
54849;SDS011;47660;51.334;12.396;2022-10-17T09:44:15;1.80;;;1.20;;
54849;SDS011;47660;51.334;12.396;2022-10-17T09:46:40;2.35;;;1.00;;
54849;SDS011;47660;51.334;12.396;2022-10-17T09:49:16;1.70;;;1.00;;
54849;SDS011;47660;51.334;12.396;2022-10-17T09:51:45;1.23;;;0.90;;
54849;SDS011;47660;51.334;12.396;2022-10-17T09:54:25;1.10;;;1.00;;
54849;SDS011;47660;51.334;12.396;2022-10-17T09:57:03;1.17;;;1.08;;
54849;SDS011;47660;51.334;12.396;2022-10-17T09:59:33;2.17;;;0.90;;
54849;SDS011;47660;51.334;12.396;2022-10-17T10:02:09;1.88;;;1.05;;
54849;SDS011;47660;51.334;12.396;2022-10-17T10:04:34;2.78;;;0.80;;
54849;SDS011;47660;51.334;12.396;2022-10-17T10:07:00;3.17;;;1.10;;
54849;SDS011;47660;51.334;12.396;2022-10-17T10:09:27;2.60;;;1.23;;
54849;SDS011;47660;51.334;12.396;2022-10-17T10:11:55;6.50;;;1.23;;
54849;SDS011;47660;51.334;12.396;2022-10-17T10:14:30;2.05;;;1.02;;
54849;SDS011;47660;51.334;12.396;2022-10-17T10:16:57;2.33;;;0.90;;
54849;SDS011;47660;51.334;12.396;2022-10-17T10:22:01;1.35;;;0.95;;
54849;SDS011;47660;51.334;12.396;2022-10-17T10:24:27;3.42;;;1.15;;
54849;SDS011;47660;51.334;12.396;2022-10-17T10:26:56;0.75;;;0.60;;
54849;SDS011;47660;51.334;12.396;2022-10-17T10:31:50;2.83;;;0.90;;
54849;SDS011;47660;51.334;12.396;2022-10-17T10:34:19;1.48;;;1.08;;
54849;SDS011;47660;51.334;12.396;2022-10-17T10:36:48;1.05;;;0.80;;
54849;SDS011;47660;51.334;12.396;2022-10-17T10:39:33;1.23;;;1.08;;
54849;SDS011;47660;51.334;12.396;2022-10-17T10:42:00;1.90;;;1.30;;
54849;SDS011;47660;51.334;12.396;2022-10-17T10:44:27;1.42;;;0.90;;
54849;SDS011;47660;51.334;12.396;2022-10-17T10:47:14;2.53;;;0.98;;
54849;SDS011;47660;51.334;12.396;2022-10-17T10:49:42;1.83;;;0.90;;
54849;SDS011;47660;51.334;12.396;2022-10-17T10:52:09;4.28;;;0.93;;
54849;SDS011;47660;51.334;12.396;2022-10-17T10:54:40;2.33;;;1.10;;
54849;SDS011;47660;51.334;12.396;2022-10-17T10:57:11;2.28;;;1.00;;
54849;SDS011;47660;51.334;12.396;2022-10-17T11:02:23;2.10;;;0.90;;
54849;SDS011;47660;51.334;12.396;2022-10-17T11:07:30;3.80;;;1.25;;
54849;SDS011;47660;51.334;12.396;2022-10-17T11:23:11;4.47;;;1.05;;
54849;SDS011;47660;51.334;12.396;2022-10-17T11:25:38;2.20;;;1.10;;
54849;SDS011;47660;51.334;12.396;2022-10-17T11:28:20;3.10;;;1.00;;
54849;SDS011;47660;51.334;12.396;2022-10-17T11:30:50;2.83;;;1.02;;
54849;SDS011;47660;51.334;12.396;2022-10-17T11:33:26;2.15;;;1.08;;
54849;SDS011;47660;51.334;12.396;2022-10-17T11:35:53;0.88;;;0.70;;
54849;SDS011;47660;51.334;12.396;2022-10-17T11:40:57;4.15;;;0.93;;
54849;SDS011;47660;51.334;12.396;2022-10-17T11:43:28;1.58;;;0.70;;
54849;SDS011;47660;51.334;12.396;2022-10-17T11:45:55;2.08;;;0.90;;
54849;SDS011;47660;51.334;12.396;2022-10-17T11:50:48;1.70;;;1.00;;
54849;SDS011;47660;51.334;12.396;2022-10-17T11:53:27;1.23;;;0.90;;
54849;SDS011;47660;51.334;12.396;2022-10-17T11:55:57;3.17;;;0.93;;
54849;SDS011;47660;51.334;12.396;2022-10-17T12:03:34;1.10;;;0.83;;
54849;SDS011;47660;51.334;12.396;2022-10-17T12:11:41;4.90;;;1.17;;
54849;SDS011;47660;51.334;12.396;2022-10-17T12:14:33;2.10;;;1.00;;
54849;SDS011;47660;51.334;12.396;2022-10-17T12:16:54;3.33;;;1.20;;
54849;SDS011;47660;51.334;12.396;2022-10-17T12:19:20;1.17;;;0.77;;
54849;SDS011;47660;51.334;12.396;2022-10-17T12:21:54;4.15;;;1.15;;
54849;SDS011;47660;51.334;12.396;2022-10-17T12:24:40;2.33;;;1.30;;
54849;SDS011;47660;51.334;12.396;2022-10-17T12:27:21;1.15;;;0.85;;
54849;SDS011;47660;51.334;12.396;2022-10-17T12:29:47;3.90;;;1.20;;
54849;SDS011;47660;51.334;12.396;2022-10-17T12:32:13;1.70;;;1.00;;
54849;SDS011;47660;51.334;12.396;2022-10-17T12:34:39;1.88;;;1.00;;
54849;SDS011;47660;51.334;12.396;2022-10-17T12:37:14;1.10;;;1.00;;
54849;SDS011;47660;51.334;12.396;2022-10-17T12:39:59;1.63;;;1.03;;
54849;SDS011;47660;51.334;12.396;2022-10-17T12:42:28;1.80;;;1.10;;
54849;SDS011;47660;51.334;12.396;2022-10-17T12:44:53;1.58;;;1.23;;
54849;SDS011;47660;51.334;12.396;2022-10-17T12:47:36;2.50;;;1.50;;
54849;SDS011;47660;51.334;12.396;2022-10-17T12:50:02;2.22;;;1.05;;
54849;SDS011;47660;51.334;12.396;2022-10-17T12:57:32;2.50;;;1.27;;
54849;SDS011;47660;51.334;12.396;2022-10-17T13:00:04;2.38;;;1.20;;
54849;SDS011;47660;51.334;12.396;2022-10-17T13:02:36;3.83;;;2.13;;
54849;SDS011;47660;51.334;12.396;2022-10-17T13:05:04;1.73;;;1.10;;
54849;SDS011;47660;51.334;12.396;2022-10-17T13:07:31;1.35;;;1.25;;
54849;SDS011;47660;51.334;12.396;2022-10-17T13:09:57;1.40;;;1.00;;
54849;SDS011;47660;51.334;12.396;2022-10-17T13:12:28;3.38;;;1.08;;
54849;SDS011;47660;51.334;12.396;2022-10-17T13:14:54;2.70;;;1.10;;
54849;SDS011;47660;51.334;12.396;2022-10-17T13:17:23;4.68;;;1.10;;
54849;SDS011;47660;51.334;12.396;2022-10-17T13:19:49;2.25;;;1.08;;
54849;SDS011;47660;51.334;12.396;2022-10-17T13:22:19;2.58;;;1.00;;
54849;SDS011;47660;51.334;12.396;2022-10-17T13:24:45;1.73;;;0.93;;
54849;SDS011;47660;51.334;12.396;2022-10-17T13:29:50;1.20;;;0.80;;
54849;SDS011;47660;51.334;12.396;2022-10-17T13:32:15;2.78;;;1.30;;
54849;SDS011;47660;51.334;12.396;2022-10-17T13:34:43;3.63;;;1.13;;
54849;SDS011;47660;51.334;12.396;2022-10-17T13:37:09;2.60;;;1.03;;
54849;SDS011;47660;51.334;12.396;2022-10-17T13:39:39;1.38;;;1.10;;
54849;SDS011;47660;51.334;12.396;2022-10-17T13:42:05;2.17;;;1.17;;
54849;SDS011;47660;51.334;12.396;2022-10-17T13:44:32;1.13;;;1.02;;
54849;SDS011;47660;51.334;12.396;2022-10-17T13:46:57;2.10;;;1.20;;
54849;SDS011;47660;51.334;12.396;2022-10-17T13:52:01;1.33;;;1.02;;
54849;SDS011;47660;51.334;12.396;2022-10-17T13:54:35;2.05;;;1.25;;
54849;SDS011;47660;51.334;12.396;2022-10-17T13:57:01;2.08;;;1.20;;
54849;SDS011;47660;51.334;12.396;2022-10-17T13:59:38;1.13;;;1.00;;
54849;SDS011;47660;51.334;12.396;2022-10-17T14:02:04;1.60;;;0.90;;
54849;SDS011;47660;51.334;12.396;2022-10-17T14:04:36;1.30;;;0.90;;
54849;SDS011;47660;51.334;12.396;2022-10-17T14:07:01;5.15;;;1.02;;
54849;SDS011;47660;51.334;12.396;2022-10-17T14:09:27;1.35;;;1.02;;
54849;SDS011;47660;51.334;12.396;2022-10-17T14:12:01;1.60;;;1.13;;
54849;SDS011;47660;51.334;12.396;2022-10-17T14:14:27;1.60;;;1.10;;
54849;SDS011;47660;51.334;12.396;2022-10-17T14:16:52;0.98;;;0.85;;
54849;SDS011;47660;51.334;12.396;2022-10-17T14:19:31;2.15;;;1.00;;
54849;SDS011;47660;51.334;12.396;2022-10-17T14:22:13;1.75;;;1.02;;
54849;SDS011;47660;51.334;12.396;2022-10-17T14:24:39;0.90;;;0.80;;
54849;SDS011;47660;51.334;12.396;2022-10-17T14:29:55;0.90;;;0.85;;
54849;SDS011;47660;51.334;12.396;2022-10-17T14:32:24;1.02;;;0.77;;
54849;SDS011;47660;51.334;12.396;2022-10-17T14:34:53;1.67;;;1.10;;
54849;SDS011;47660;51.334;12.396;2022-10-17T14:39:47;2.37;;;0.90;;
54849;SDS011;47660;51.334;12.396;2022-10-17T14:42:21;2.22;;;0.95;;
54849;SDS011;47660;51.334;12.396;2022-10-17T14:44:50;2.63;;;1.15;;
54849;SDS011;47660;51.334;12.396;2022-10-17T14:47:18;1.33;;;0.88;;
54849;SDS011;47660;51.334;12.396;2022-10-17T14:49:48;2.15;;;1.02;;
54849;SDS011;47660;51.334;12.396;2022-10-17T14:54:45;1.85;;;0.90;;
54849;SDS011;47660;51.334;12.396;2022-10-17T14:57:14;2.20;;;0.85;;
54849;SDS011;47660;51.334;12.396;2022-10-17T14:59:43;0.93;;;0.77;;
54849;SDS011;47660;51.334;12.396;2022-10-17T15:02:09;2.10;;;0.80;;
54849;SDS011;47660;51.334;12.396;2022-10-17T15:04:37;0.70;;;0.70;;
54849;SDS011;47660;51.334;12.396;2022-10-17T15:07:03;0.80;;;0.75;;
54849;SDS011;47660;51.334;12.396;2022-10-17T15:09:28;0.93;;;0.83;;
54849;SDS011;47660;51.334;12.396;2022-10-17T15:11:55;2.60;;;0.80;;
54849;SDS011;47660;51.334;12.396;2022-10-17T15:14:23;1.50;;;0.98;;
54849;SDS011;47660;51.334;12.396;2022-10-17T15:16:49;1.50;;;1.13;;
54849;SDS011;47660;51.334;12.396;2022-10-17T15:19:16;2.03;;;1.00;;
54849;SDS011;47660;51.334;12.396;2022-10-17T15:21:41;2.30;;;0.80;;
54849;SDS011;47660;51.334;12.396;2022-10-17T15:24:09;1.10;;;0.88;;
54849;SDS011;47660;51.334;12.396;2022-10-17T15:26:37;1.40;;;0.98;;
54849;SDS011;47660;51.334;12.396;2022-10-17T15:29:03;1.48;;;0.77;;
54849;SDS011;47660;51.334;12.396;2022-10-17T15:31:28;2.37;;;0.87;;
54849;SDS011;47660;51.334;12.396;2022-10-17T15:33:55;0.80;;;0.70;;
54849;SDS011;47660;51.334;12.396;2022-10-17T15:36:24;0.85;;;0.80;;
54849;SDS011;47660;51.334;12.396;2022-10-17T15:38:53;1.10;;;0.80;;
54849;SDS011;47660;51.334;12.396;2022-10-17T15:41:20;1.55;;;0.93;;
54849;SDS011;47660;51.334;12.396;2022-10-17T15:43:46;1.33;;;0.80;;
54849;SDS011;47660;51.334;12.396;2022-10-17T15:46:13;1.13;;;0.90;;
54849;SDS011;47660;51.334;12.396;2022-10-17T15:48:38;2.95;;;0.90;;
54849;SDS011;47660;51.334;12.396;2022-10-17T15:51:04;2.45;;;0.90;;
54849;SDS011;47660;51.334;12.396;2022-10-17T15:53:29;1.77;;;0.90;;
54849;SDS011;47660;51.334;12.396;2022-10-17T15:55:57;0.80;;;0.80;;
54849;SDS011;47660;51.334;12.396;2022-10-17T15:58:22;2.65;;;1.00;;
54849;SDS011;47660;51.334;12.396;2022-10-17T16:00:47;3.50;;;1.10;;
54849;SDS011;47660;51.334;12.396;2022-10-17T16:03:13;3.03;;;0.90;;
54849;SDS011;47660;51.334;12.396;2022-10-17T16:05:38;1.52;;;1.00;;
54849;SDS011;47660;51.334;12.396;2022-10-17T16:08:04;1.52;;;1.20;;
54849;SDS011;47660;51.334;12.396;2022-10-17T16:10:29;2.30;;;1.23;;
54849;SDS011;47660;51.334;12.396;2022-10-17T16:12:54;2.97;;;1.73;;
54849;SDS011;47660;51.334;12.396;2022-10-17T16:15:25;1.58;;;1.10;;
54849;SDS011;47660;51.334;12.396;2022-10-17T16:17:52;1.85;;;1.30;;
54849;SDS011;47660;51.334;12.396;2022-10-17T16:20:18;1.85;;;1.23;;
54849;SDS011;47660;51.334;12.396;2022-10-17T16:22:43;3.53;;;1.20;;
54849;SDS011;47660;51.334;12.396;2022-10-17T16:25:20;2.70;;;1.45;;
54849;SDS011;47660;51.334;12.396;2022-10-17T16:27:47;1.80;;;1.20;;
54849;SDS011;47660;51.334;12.396;2022-10-17T16:30:15;2.30;;;1.55;;
54849;SDS011;47660;51.334;12.396;2022-10-17T16:32:40;2.03;;;1.35;;